createdAt,value
2024-05-09T00:00:42.865Z,5.25
2024-05-09T00:03:11.736Z,3.28
2024-05-09T00:05:46.100Z,3.13
2024-05-09T00:08:13.741Z,2.97
2024-05-09T00:10:41.678Z,3.17
2024-05-09T00:13:10.809Z,2.80
2024-05-09T00:15:39.541Z,3.60
2024-05-09T00:18:07.985Z,3.13
2024-05-09T00:20:39.679Z,3.10
2024-05-09T00:23:16.086Z,3.40
2024-05-09T00:25:44.371Z,3.42
2024-05-09T00:28:12.902Z,3.55
2024-05-09T00:30:40.820Z,3.72
2024-05-09T00:33:10.327Z,2.88
2024-05-09T00:35:39.321Z,2.85
2024-05-09T00:38:07.095Z,3.00
2024-05-09T00:40:42.226Z,3.17
2024-05-09T00:43:12.514Z,3.15
2024-05-09T00:45:40.959Z,3.90
2024-05-09T00:48:10.157Z,3.58
2024-05-09T00:50:41.500Z,3.83
2024-05-09T00:53:14.425Z,3.70
2024-05-09T00:55:42.848Z,3.90
2024-05-09T00:58:14.954Z,5.35
2024-05-09T01:00:43.666Z,3.45
2024-05-09T01:03:13.057Z,3.72
2024-05-09T01:05:43.286Z,3.10
2024-05-09T01:08:11.867Z,4.10
2024-05-09T01:10:42.799Z,3.50
2024-05-09T01:13:12.379Z,5.05
2024-05-09T01:15:40.077Z,3.47
2024-05-09T01:18:10.707Z,2.67
2024-05-09T01:20:42.522Z,3.40
2024-05-09T01:23:14.681Z,3.78
2024-05-09T01:25:45.318Z,3.90
2024-05-09T01:28:13.531Z,4.45
2024-05-09T01:30:40.895Z,3.50
2024-05-09T01:33:10.345Z,3.47
2024-05-09T01:35:41.990Z,3.17
2024-05-09T01:38:13.751Z,3.70
2024-05-09T01:40:41.916Z,4.82
2024-05-09T01:43:10.875Z,4.20
2024-05-09T01:45:41.087Z,3.25
2024-05-09T01:48:09.274Z,3.10
2024-05-09T01:50:40.720Z,3.50
2024-05-09T01:53:11.369Z,3.88
2024-05-09T01:55:39.338Z,4.47
2024-05-09T01:58:07.468Z,3.95
2024-05-09T02:00:40.255Z,3.58
2024-05-09T02:03:14.596Z,3.17
2024-05-09T02:05:45.955Z,3.78
2024-05-09T02:08:15.667Z,4.63
2024-05-09T02:10:47.304Z,4.13
2024-05-09T02:13:17.063Z,3.03
2024-05-09T02:15:44.987Z,3.38
2024-05-09T02:18:13.264Z,4.03
2024-05-09T02:20:42.295Z,3.65
2024-05-09T02:23:10.742Z,3.58
2024-05-09T02:25:38.125Z,2.95
2024-05-09T02:28:06.098Z,2.90
2024-05-09T02:30:40.590Z,3.83
2024-05-09T02:33:12.260Z,3.90
2024-05-09T02:35:43.334Z,2.83
2024-05-09T02:38:12.445Z,3.78
2024-05-09T02:40:40.628Z,3.28
2024-05-09T02:43:10.704Z,3.25
2024-05-09T02:45:39.932Z,3.80
2024-05-09T02:48:10.541Z,4.38
2024-05-09T02:50:39.942Z,2.90
2024-05-09T02:53:09.229Z,3.15
2024-05-09T02:55:38.254Z,3.75
2024-05-09T02:58:07.632Z,3.55
2024-05-09T03:00:39.410Z,5.25
2024-05-09T03:03:11.759Z,3.10
2024-05-09T03:05:41.642Z,3.05
2024-05-09T03:08:09.438Z,3.30
2024-05-09T03:10:38.775Z,2.90
2024-05-09T03:13:13.090Z,2.92
2024-05-09T03:18:09.885Z,3.88
2024-05-09T03:20:38.383Z,3.90
2024-05-09T03:23:09.275Z,3.53
2024-05-09T03:25:38.143Z,3.88
2024-05-09T03:28:06.033Z,3.67
2024-05-09T03:30:40.521Z,3.20
2024-05-09T03:33:13.154Z,4.18
2024-05-09T03:35:42.263Z,3.20
2024-05-09T03:38:10.031Z,3.30
2024-05-09T03:40:45.013Z,3.67
2024-05-09T03:43:14.049Z,3.13
2024-05-09T03:45:43.317Z,3.67
2024-05-09T03:48:29.410Z,2.30
2024-05-09T03:50:56.815Z,3.28
2024-05-09T03:53:25.405Z,3.05
2024-05-09T03:55:52.778Z,2.97
2024-05-09T03:58:20.135Z,2.67
2024-05-09T04:00:47.468Z,3.42
2024-05-09T04:03:15.145Z,3.03
2024-05-09T04:05:46.111Z,2.78
2024-05-09T04:08:15.544Z,2.92
2024-05-09T04:10:43.401Z,2.80
2024-05-09T04:13:11.350Z,2.75
2024-05-09T04:15:39.129Z,2.05
2024-05-09T04:18:06.624Z,3.05
2024-05-09T04:20:38.880Z,3.13
2024-05-09T04:23:12.651Z,2.67
2024-05-09T04:25:45.316Z,3.92
2024-05-09T04:28:14.499Z,3.20
2024-05-09T04:30:42.681Z,2.35
2024-05-09T04:33:12.747Z,2.80
2024-05-09T04:35:43.304Z,2.45
2024-05-09T04:38:12.194Z,3.00
2024-05-09T04:40:39.833Z,2.80
2024-05-09T04:43:14.148Z,2.28
2024-05-09T04:45:41.760Z,2.38
2024-05-09T04:48:09.505Z,2.28
2024-05-09T04:50:39.209Z,2.50
2024-05-09T04:53:14.758Z,2.97
2024-05-09T04:55:42.330Z,2.85
2024-05-09T04:58:10.728Z,2.45
2024-05-09T05:00:41.706Z,2.88
2024-05-09T05:03:14.275Z,2.10
2024-05-09T05:05:45.357Z,3.13
2024-05-09T05:08:18.957Z,2.50
2024-05-09T05:10:48.357Z,2.28
2024-05-09T05:13:24.154Z,2.60
2024-05-09T05:15:57.375Z,2.00
2024-05-09T05:18:29.433Z,2.60
2024-05-09T05:20:58.667Z,2.35
2024-05-09T05:23:26.167Z,2.55
2024-05-09T05:25:55.360Z,2.83
2024-05-09T05:28:23.625Z,2.92
2024-05-09T05:30:51.081Z,2.30
2024-05-09T05:33:19.461Z,2.28
2024-05-09T05:35:47.343Z,3.83
2024-05-09T05:38:15.358Z,3.38
2024-05-09T05:40:43.015Z,3.45
2024-05-09T05:43:16.929Z,2.15
2024-05-09T05:45:45.161Z,2.53
2024-05-09T05:48:13.617Z,2.08
2024-05-09T05:50:41.225Z,3.17
2024-05-09T05:53:10.106Z,3.15
2024-05-09T05:55:40.059Z,3.30
2024-05-09T05:58:10.925Z,3.00
2024-05-09T06:00:40.187Z,3.65
2024-05-09T06:03:10.383Z,1.80
2024-05-09T06:05:44.389Z,1.98
2024-05-09T06:08:12.627Z,1.98
2024-05-09T06:10:41.650Z,2.67
2024-05-09T06:13:14.033Z,2.00
2024-05-09T06:15:42.713Z,2.25
2024-05-09T06:18:12.209Z,2.30
2024-05-09T06:20:43.318Z,2.45
2024-05-09T06:23:12.188Z,2.15
2024-05-09T06:25:40.109Z,2.80
2024-05-09T06:28:07.596Z,3.95
2024-05-09T06:30:42.433Z,1.73
2024-05-09T06:33:13.928Z,1.38
2024-05-09T06:35:43.711Z,3.38
2024-05-09T06:38:11.847Z,1.80
2024-05-09T06:40:42.631Z,2.35
2024-05-09T06:43:12.368Z,1.77
2024-05-09T06:45:40.258Z,3.20
2024-05-09T06:48:09.179Z,2.55
2024-05-09T06:50:38.518Z,1.83
2024-05-09T06:53:08.169Z,2.50
2024-05-09T06:55:36.611Z,3.67
2024-05-09T06:58:06.458Z,2.38
2024-05-09T07:00:38.753Z,2.13
2024-05-09T07:03:09.726Z,3.22
2024-05-09T07:05:37.929Z,1.83
2024-05-09T07:08:06.556Z,2.10
2024-05-09T07:10:36.141Z,1.90
2024-05-09T07:13:10.574Z,2.97
2024-05-09T07:15:38.450Z,2.22
2024-05-09T07:18:20.363Z,1.80
2024-05-09T07:20:49.831Z,2.10
2024-05-09T07:23:18.551Z,2.38
2024-05-09T07:25:46.395Z,2.08
2024-05-09T07:28:15.901Z,1.90
2024-05-09T07:30:43.626Z,2.28
2024-05-09T07:33:18.089Z,3.13
2024-05-09T07:35:46.011Z,1.73
2024-05-09T07:38:13.697Z,1.77
2024-05-09T07:40:41.914Z,1.30
2024-05-09T07:43:13.332Z,1.63
2024-05-09T07:45:50.443Z,3.22
2024-05-09T07:52:38.071Z,2.35
2024-05-09T07:53:47.911Z,2.97
2024-05-09T07:56:20.281Z,2.55
2024-05-09T07:58:50.588Z,2.63
2024-05-09T08:01:18.256Z,1.88
2024-05-09T08:03:45.962Z,2.65
2024-05-09T08:06:13.574Z,2.35
2024-05-09T08:08:41.036Z,1.73
2024-05-09T08:11:08.389Z,1.85
2024-05-09T08:13:35.745Z,2.13
2024-05-09T08:16:03.298Z,2.17
2024-05-09T08:18:31.001Z,1.70
2024-05-09T08:20:58.814Z,1.70
2024-05-09T08:23:26.167Z,2.17
2024-05-09T08:25:53.438Z,1.92
2024-05-09T08:28:21.221Z,1.55
2024-05-09T08:30:48.809Z,2.15
2024-05-09T08:33:16.468Z,2.20
2024-05-09T08:35:44.002Z,2.53
2024-05-09T08:38:11.509Z,2.60
2024-05-09T08:40:39.276Z,2.75
2024-05-09T08:43:12.132Z,2.47
2024-05-09T08:45:45.043Z,2.45
2024-05-09T08:48:15.695Z,2.35
2024-05-09T08:50:45.090Z,1.58
2024-05-09T08:53:15.307Z,3.83
2024-05-09T08:55:44.286Z,3.85
2024-05-09T08:58:16.228Z,3.03
2024-05-09T09:00:45.445Z,2.28
2024-05-09T09:03:17.043Z,1.73
2024-05-09T09:05:58.604Z,2.65
2024-05-09T09:08:26.568Z,2.58
2024-05-09T09:10:58.348Z,2.60
2024-05-09T09:13:29.097Z,2.63
2024-05-09T09:16:00.260Z,1.80
2024-05-09T09:18:28.469Z,2.22
2024-05-09T09:20:56.478Z,1.70
2024-05-09T09:23:23.821Z,2.83
2024-05-09T09:25:52.182Z,3.08
2024-05-09T09:28:23.260Z,2.15
2024-05-09T09:31:09.664Z,2.60
2024-05-09T09:33:43.850Z,2.25
2024-05-09T09:36:14.484Z,3.67
2024-05-09T09:38:42.682Z,3.45
2024-05-09T09:41:13.598Z,2.08
2024-05-09T09:43:42.520Z,3.05
2024-05-09T09:46:12.636Z,2.15
2024-05-09T09:48:41.918Z,2.60
2024-05-09T09:51:28.097Z,2.55
2024-05-09T09:53:56.662Z,6.32
2024-05-09T09:56:25.475Z,3.78
2024-05-09T09:58:54.847Z,1.88
2024-05-09T10:01:22.286Z,1.98
2024-05-09T10:03:49.885Z,2.50
2024-05-09T10:06:18.222Z,4.60
2024-05-09T10:08:47.879Z,2.05
2024-05-09T10:11:20.327Z,5.47
2024-05-09T10:13:47.963Z,2.33
2024-05-09T10:16:22.765Z,2.90
2024-05-09T10:18:50.317Z,3.83
2024-05-09T10:21:20.652Z,1.95
2024-05-09T10:24:03.060Z,3.40
2024-05-09T10:26:35.188Z,2.05
2024-05-09T10:29:11.842Z,3.28
2024-05-09T10:31:41.885Z,2.35
2024-05-09T10:34:17.870Z,2.10
2024-05-09T10:36:45.470Z,3.45
2024-05-09T10:39:16.055Z,2.72
2024-05-09T10:41:43.353Z,3.13
2024-05-09T10:44:17.728Z,3.00
2024-05-09T10:46:46.469Z,2.80
2024-05-09T10:49:17.140Z,6.90
2024-05-09T10:51:45.545Z,2.35
2024-05-09T10:54:13.062Z,2.33
2024-05-09T10:56:41.664Z,2.55
2024-05-09T10:59:08.941Z,1.90
2024-05-09T11:01:36.852Z,2.20
2024-05-09T11:04:04.638Z,2.45
2024-05-09T11:06:32.160Z,2.47
2024-05-09T11:08:59.630Z,2.70
2024-05-09T11:11:27.391Z,3.33
2024-05-09T11:13:54.745Z,2.47
2024-05-09T11:16:22.467Z,3.03
2024-05-09T11:18:57.706Z,2.97
2024-05-09T11:21:25.508Z,2.70
2024-05-09T11:23:53.528Z,3.25
2024-05-09T11:26:22.307Z,2.70
2024-05-09T11:28:51.029Z,2.38
2024-05-09T11:31:18.966Z,4.32
2024-05-09T11:33:47.110Z,4.10
2024-05-09T11:36:15.151Z,2.28
2024-05-09T11:38:44.160Z,2.55
2024-05-09T11:41:17.949Z,2.40
2024-05-09T11:43:45.374Z,4.65
2024-05-09T11:46:13.132Z,2.17
2024-05-09T11:48:40.890Z,2.83
2024-05-09T11:51:08.309Z,3.13
2024-05-09T11:53:35.598Z,2.70
2024-05-09T11:56:03.261Z,2.40
2024-05-09T11:58:34.733Z,3.20
2024-05-09T12:01:02.682Z,3.00
2024-05-09T12:03:30.373Z,3.78
2024-05-09T12:05:58.091Z,2.50
2024-05-09T12:08:25.707Z,4.15
2024-05-09T12:10:53.863Z,2.65
2024-05-09T12:13:21.563Z,2.97
2024-05-09T12:15:49.113Z,4.05
2024-05-09T12:18:16.647Z,2.55
2024-05-09T12:20:43.967Z,2.17
2024-05-09T12:23:11.457Z,3.53
2024-05-09T12:25:39.998Z,1.92
2024-05-09T12:28:09.106Z,2.42
2024-05-09T12:30:40.314Z,2.42
2024-05-09T12:33:11.283Z,3.20
2024-05-09T12:35:40.196Z,2.50
2024-05-09T12:38:07.791Z,2.38
2024-05-09T12:40:37.991Z,3.35
2024-05-09T12:43:08.496Z,2.60
2024-05-09T12:45:37.735Z,2.85
2024-05-09T12:48:08.502Z,3.00
2024-05-09T12:50:36.927Z,3.15
2024-05-09T12:53:05.430Z,3.38
2024-05-09T12:55:41.292Z,3.28
2024-05-09T12:58:19.326Z,2.75
2024-05-09T13:00:47.403Z,3.33
2024-05-09T13:03:15.331Z,5.57
2024-05-09T13:05:45.335Z,4.05
2024-05-09T13:08:13.790Z,1.85
2024-05-09T13:10:41.591Z,3.15
2024-05-09T13:13:12.761Z,3.88
2024-05-09T13:15:40.486Z,3.67
2024-05-09T13:18:10.413Z,4.07
2024-05-09T13:20:37.868Z,3.85
2024-05-09T13:23:07.918Z,2.42
2024-05-09T13:25:38.686Z,2.33
2024-05-09T13:28:07.346Z,2.53
2024-05-09T13:30:40.409Z,3.03
2024-05-09T13:33:11.990Z,4.93
2024-05-09T13:35:47.797Z,2.40
2024-05-09T13:38:20.369Z,2.17
2024-05-09T13:40:48.875Z,2.70
2024-05-09T13:43:18.009Z,2.28
2024-05-09T13:45:45.733Z,2.58
2024-05-09T13:48:13.444Z,3.08
2024-05-09T13:50:40.925Z,4.03
2024-05-09T13:53:09.054Z,2.28
2024-05-09T13:55:40.803Z,2.95
2024-05-09T13:58:09.322Z,2.38
2024-05-09T14:00:45.956Z,2.80
2024-05-09T14:03:19.453Z,4.35
2024-05-09T14:05:50.103Z,2.72
2024-05-09T14:08:20.080Z,2.08
2024-05-09T14:10:48.995Z,3.60
2024-05-09T14:13:16.969Z,4.20
2024-05-09T14:15:44.535Z,3.50
2024-05-09T14:18:13.891Z,3.33
2024-05-09T14:20:42.768Z,2.13
2024-05-09T14:23:10.526Z,1.98
2024-05-09T14:25:42.279Z,3.08
2024-05-09T14:28:13.065Z,2.60
2024-05-09T14:30:42.055Z,3.30
2024-05-09T14:33:10.276Z,2.85
2024-05-09T14:35:38.898Z,4.93
2024-05-09T14:38:08.031Z,3.55
2024-05-09T14:40:41.961Z,1.98
2024-05-09T14:43:13.816Z,2.63
2024-05-09T14:45:42.235Z,3.30
2024-05-09T14:48:10.679Z,2.60
2024-05-09T14:50:39.881Z,3.05
2024-05-09T14:53:10.287Z,4.22
2024-05-09T14:55:42.462Z,3.58
2024-05-09T14:58:12.200Z,3.85
2024-05-09T15:00:46.209Z,3.53
2024-05-09T15:03:21.886Z,3.83
2024-05-09T15:05:51.103Z,2.75
2024-05-09T15:08:19.942Z,5.57
2024-05-09T15:10:50.265Z,7.15
2024-05-09T15:13:19.768Z,2.15
2024-05-09T15:15:47.452Z,3.10
2024-05-09T15:18:15.499Z,5.05
2024-05-09T15:20:45.081Z,3.47
2024-05-09T15:23:12.953Z,3.58
2024-05-09T15:25:40.533Z,2.58
2024-05-09T15:28:08.279Z,3.95
2024-05-09T15:30:36.612Z,3.17
2024-05-09T15:33:05.044Z,2.75
2024-05-09T15:35:34.104Z,3.55
2024-05-09T15:38:03.587Z,3.08
2024-05-09T15:40:38.295Z,4.88
2024-05-09T15:43:10.655Z,2.58
2024-05-09T15:45:57.567Z,2.35
2024-05-09T15:48:25.008Z,2.42
2024-05-09T15:50:52.430Z,2.60
2024-05-09T15:53:19.895Z,3.08
2024-05-09T15:55:48.405Z,2.97
2024-05-09T15:58:16.091Z,4.07
2024-05-09T16:00:45.456Z,3.00
2024-05-09T16:03:15.265Z,4.50
2024-05-09T16:05:45.717Z,2.80
2024-05-09T16:08:14.954Z,2.67
2024-05-09T16:10:46.139Z,2.80
2024-05-09T16:13:16.094Z,3.13
2024-05-09T16:15:44.363Z,2.42
2024-05-09T16:18:12.595Z,4.25
2024-05-09T16:20:42.295Z,3.35
2024-05-09T16:23:11.487Z,3.67
2024-05-09T16:25:39.799Z,2.95
2024-05-09T16:28:10.160Z,3.95
2024-05-09T16:30:39.831Z,4.00
2024-05-09T16:33:08.641Z,4.00
2024-05-09T16:35:37.619Z,4.30
2024-05-09T16:38:08.700Z,7.47
2024-05-09T16:40:40.084Z,4.72
2024-05-09T16:43:13.273Z,3.50
2024-05-09T16:45:44.239Z,3.78
2024-05-09T16:48:13.351Z,3.85
2024-05-09T16:50:40.850Z,3.85
2024-05-09T16:53:08.804Z,4.03
2024-05-09T16:55:36.551Z,3.08
2024-05-09T16:58:05.006Z,6.40
2024-05-09T17:00:40.354Z,2.90
2024-05-09T17:03:15.875Z,4.40
2024-05-09T17:05:47.224Z,3.47
2024-05-09T17:08:16.504Z,4.40
2024-05-09T17:10:45.295Z,3.70
2024-05-09T17:13:12.755Z,3.97
2024-05-09T17:15:40.160Z,4.20
2024-05-09T17:18:08.010Z,4.38
2024-05-09T17:20:37.488Z,3.90
2024-05-09T17:23:13.628Z,4.07
2024-05-09T17:25:42.664Z,3.45
2024-05-09T17:28:11.115Z,3.92
2024-05-09T17:30:40.750Z,4.93
2024-05-09T17:33:10.674Z,4.03
2024-05-09T17:35:39.116Z,3.38
2024-05-09T17:38:06.980Z,3.72
2024-05-09T17:40:37.082Z,5.80
2024-05-09T17:43:08.599Z,5.82
2024-05-09T17:45:39.224Z,4.07
2024-05-09T17:48:09.524Z,7.45
2024-05-09T17:50:38.023Z,4.05
2024-05-09T17:53:06.565Z,3.67
2024-05-09T17:55:34.306Z,3.13
2024-05-09T17:58:01.980Z,3.55
2024-05-09T18:00:37.448Z,6.93
2024-05-09T18:03:11.022Z,5.22
2024-05-09T18:05:39.430Z,4.63
2024-05-09T18:08:07.626Z,4.13
2024-05-09T18:10:38.723Z,5.15
2024-05-09T18:13:08.862Z,5.15
2024-05-09T18:15:37.286Z,5.53
2024-05-09T18:18:05.822Z,4.85
2024-05-09T18:20:41.776Z,3.47
2024-05-09T18:23:15.754Z,6.80
2024-05-09T18:25:44.963Z,4.60
2024-05-09T18:28:12.485Z,4.88
2024-05-09T18:30:40.650Z,6.57
2024-05-09T18:33:10.975Z,3.47
2024-05-09T18:35:38.935Z,4.72
2024-05-09T18:38:08.895Z,4.43
2024-05-09T18:40:38.375Z,3.63
2024-05-09T18:43:08.589Z,4.05
2024-05-09T18:45:40.273Z,7.00
2024-05-09T18:48:09.998Z,6.55
2024-05-09T18:50:40.281Z,8.65
2024-05-09T18:53:11.071Z,4.15
2024-05-09T18:55:39.369Z,4.38
2024-05-09T18:58:07.276Z,6.60
2024-05-09T19:00:38.409Z,6.38
2024-05-09T19:03:10.543Z,4.55
2024-05-09T19:05:40.723Z,3.47
2024-05-09T19:08:09.061Z,5.90
2024-05-09T19:10:39.341Z,4.95
2024-05-09T19:13:11.723Z,5.03
2024-05-09T19:15:41.743Z,5.88
2024-05-09T19:18:10.313Z,6.75
2024-05-09T19:20:38.508Z,5.95
2024-05-09T19:23:07.018Z,5.95
2024-05-09T19:25:35.384Z,6.80
2024-05-09T19:28:03.730Z,8.27
2024-05-09T19:30:38.591Z,6.05
2024-05-09T19:33:10.921Z,4.68
2024-05-09T19:35:39.498Z,5.70
2024-05-09T19:38:06.886Z,5.10
2024-05-09T19:40:35.320Z,9.63
2024-05-09T19:43:05.271Z,5.65
2024-05-09T19:45:35.399Z,5.10
2024-05-09T19:48:04.674Z,6.97
2024-05-09T19:50:40.440Z,8.15
2024-05-09T19:53:11.741Z,7.35
2024-05-09T19:55:40.260Z,5.32
2024-05-09T19:58:09.298Z,5.57
2024-05-09T20:00:39.952Z,7.03
2024-05-09T20:03:10.519Z,6.20
2024-05-09T20:05:38.722Z,5.57
2024-05-09T20:08:07.052Z,5.68
2024-05-09T20:10:35.921Z,9.65
2024-05-09T20:13:07.006Z,5.18
2024-05-09T20:15:37.120Z,6.03
2024-05-09T20:18:05.285Z,5.15
2024-05-09T20:20:39.149Z,5.90
2024-05-09T20:23:10.183Z,5.32
2024-05-09T20:25:37.619Z,6.65
2024-05-09T20:28:06.612Z,5.63
2024-05-09T20:30:35.416Z,7.30
2024-05-09T20:33:05.466Z,5.88
2024-05-09T20:35:34.592Z,6.10
2024-05-09T20:38:03.287Z,5.28
2024-05-09T20:40:35.446Z,4.30
2024-05-09T20:43:10.242Z,4.97
2024-05-09T20:45:38.125Z,4.90
2024-05-09T20:48:06.799Z,5.82
2024-05-09T20:50:39.311Z,6.60
2024-05-09T20:53:11.089Z,5.45
2024-05-09T20:55:39.487Z,7.25
2024-05-09T20:58:06.965Z,6.53
2024-05-09T21:00:39.666Z,8.10
2024-05-09T21:03:11.283Z,8.15
2024-05-09T21:05:39.474Z,7.05
2024-05-09T21:08:07.526Z,6.25
2024-05-09T21:10:36.260Z,5.47
2024-05-09T21:13:05.090Z,7.47
2024-05-09T21:15:33.206Z,5.60
2024-05-09T21:18:00.591Z,5.35
2024-05-09T21:20:31.671Z,6.03
2024-05-09T21:23:01.059Z,6.20
2024-05-09T21:25:28.575Z,4.47
2024-05-09T21:27:55.987Z,5.55
2024-05-09T21:30:32.548Z,5.00
2024-05-09T21:33:13.358Z,4.93
2024-05-09T21:35:43.567Z,4.88
2024-05-09T21:38:11.402Z,6.88
2024-05-09T21:40:39.122Z,4.57
2024-05-09T21:43:07.623Z,3.65
2024-05-09T21:45:36.344Z,4.88
2024-05-09T21:48:04.850Z,7.40
2024-05-09T21:50:39.343Z,5.50
2024-05-09T21:53:09.533Z,7.22
2024-05-09T21:55:36.954Z,5.13
2024-05-09T21:58:04.559Z,10.73
2024-05-09T22:00:36.708Z,8.05
2024-05-09T22:03:10.723Z,3.60
2024-05-09T22:05:42.467Z,4.18
2024-05-09T22:08:10.986Z,6.72
2024-05-09T22:10:38.852Z,4.75
2024-05-09T22:13:06.919Z,5.72
2024-05-09T22:15:37.289Z,3.38
2024-05-09T22:18:06.518Z,4.35
2024-05-09T22:20:37.862Z,4.35
2024-05-09T22:23:07.839Z,4.75
2024-05-09T22:25:36.052Z,4.45
2024-05-09T22:28:03.779Z,4.57
2024-05-09T22:30:36.203Z,4.82
2024-05-09T22:33:25.192Z,5.95
2024-05-09T22:35:52.534Z,6.68
2024-05-09T22:38:19.886Z,4.93
2024-05-09T22:40:49.594Z,4.78
2024-05-09T22:43:23.312Z,4.93
2024-05-09T22:45:55.845Z,5.00
2024-05-09T22:48:25.033Z,5.13
2024-05-09T22:50:53.460Z,4.80
2024-05-09T22:53:23.878Z,4.95
2024-05-09T22:55:51.226Z,4.60
2024-05-09T22:58:19.226Z,4.45
2024-05-09T23:00:46.803Z,3.55
2024-05-09T23:03:18.797Z,3.63
2024-05-09T23:05:46.280Z,6.18
2024-05-09T23:08:13.625Z,5.55
2024-05-09T23:10:40.877Z,3.72
2024-05-09T23:13:08.697Z,4.25
2024-05-09T23:15:38.191Z,4.93
2024-05-09T23:18:06.750Z,11.88
2024-05-09T23:20:38.422Z,4.35
2024-05-09T23:23:09.436Z,5.35
2024-05-09T23:25:37.899Z,4.60
2024-05-09T23:28:06.240Z,5.80
2024-05-09T23:30:38.519Z,4.78
2024-05-09T23:33:10.171Z,3.78
2024-05-09T23:35:38.669Z,6.20
2024-05-09T23:38:05.919Z,7.03
2024-05-09T23:40:39.468Z,4.07
2024-05-09T23:43:12.999Z,5.07
2024-05-09T23:45:42.399Z,4.28
2024-05-09T23:48:11.079Z,5.28
2024-05-09T23:50:40.126Z,4.18
2024-05-09T23:53:09.538Z,4.05
2024-05-09T23:55:38.117Z,4.47
2024-05-09T23:58:06.770Z,4.80
